Time;durP1;ratioP1;P1;durP2;ratioP2;P2;SDS_P1;SDS_P2;PMS_P1;PMS_P2;Temp;Humidity;BMP_temperature;BMP_pressure;BME280_temperature;BME280_humidity;BME280_pressure;Samples;Min_cycle;Max_cycle;Signal;HPM_P1;HPM_P2
2021/12/19 00:00:15;;;;;;;9.27;5.00;;;6.80;99.90;;;;;;5090099;27;20038;-75
2021/12/19 00:10:22;;;;;;;8.18;4.63;;;6.70;99.90;;;;;;5037410;28;20036;-76
2021/12/19 00:12:48;;;;;;;8.15;4.50;;;6.70;99.90;;;;;;5067500;27;20035;-76
2021/12/19 00:15:14;;;;;;;8.98;5.05;;;6.70;99.90;;;;;;5039606;27;20036;-75
2021/12/19 00:17:40;;;;;;;8.45;4.85;;;6.80;99.90;;;;;;5032785;28;20032;-75
2021/12/19 00:20:06;;;;;;;9.80;5.25;;;6.80;99.90;;;;;;5041557;28;20034;-75
2021/12/19 00:22:32;;;;;;;8.73;5.25;;;6.80;99.90;;;;;;5053152;27;20025;-75
2021/12/19 00:24:58;;;;;;;11.07;5.78;;;6.80;99.90;;;;;;5033881;28;20032;-75
2021/12/19 00:27:23;;;;;;;14.63;6.68;;;6.80;99.90;;;;;;5037662;28;20532;-75
2021/12/19 00:29:49;;;;;;;14.27;7.60;;;6.80;99.90;;;;;;5030785;28;20033;-75
2021/12/19 00:32:16;;;;;;;11.77;6.63;;;6.80;99.90;;;;;;5031792;28;20073;-75
2021/12/19 00:34:41;;;;;;;13.38;6.30;;;6.80;99.90;;;;;;5029346;28;20056;-75
2021/12/19 00:37:07;;;;;;;10.88;6.20;;;6.80;99.90;;;;;;5034534;28;20052;-75
2021/12/19 00:39:32;;;;;;;14.13;5.68;;;6.80;99.90;;;;;;5035538;28;20497;-77
2021/12/19 00:41:58;;;;;;;12.98;5.50;;;6.80;99.90;;;;;;5033992;28;20484;-76
2021/12/19 00:44:25;;;;;;;11.90;4.45;;;6.80;99.90;;;;;;5033771;28;20105;-76
2021/12/19 00:47:03;;;;;;;10.68;4.07;;;6.80;99.90;;;;;;5030483;28;20017;-76
2021/12/19 00:49:30;;;;;;;11.63;4.00;;;6.80;99.90;;;;;;5039048;28;20359;-76
2021/12/19 00:51:55;;;;;;;10.30;4.25;;;6.80;99.90;;;;;;5036502;28;20029;-76
2021/12/19 00:54:21;;;;;;;10.15;4.50;;;6.80;99.90;;;;;;5036548;28;20025;-76
2021/12/19 00:56:48;;;;;;;14.75;4.95;;;6.90;99.90;;;;;;5031706;28;20044;-76
2021/12/19 00:59:15;;;;;;;15.07;5.10;;;6.80;99.90;;;;;;5036269;28;20069;-77
2021/12/19 01:01:41;;;;;;;18.05;5.20;;;6.90;99.90;;;;;;5041669;28;20077;-76
2021/12/19 01:04:11;;;;;;;13.65;5.72;;;6.90;99.90;;;;;;5040520;28;20111;-75
2021/12/19 01:06:40;;;;;;;14.05;5.63;;;6.90;99.90;;;;;;5038389;28;20478;-75
2021/12/19 01:09:07;;;;;;;15.55;5.93;;;6.90;99.90;;;;;;5036782;28;20515;-76
2021/12/19 01:11:35;;;;;;;14.27;5.63;;;6.90;99.90;;;;;;5030463;28;20408;-76
2021/12/19 01:14:01;;;;;;;23.40;5.55;;;6.90;99.90;;;;;;5035447;28;20029;-76
2021/12/19 01:16:27;;;;;;;15.18;5.32;;;6.90;99.90;;;;;;5038993;28;20036;-76
2021/12/19 01:18:53;;;;;;;16.00;5.82;;;6.90;99.90;;;;;;5040051;28;20025;-75
2021/12/19 01:21:18;;;;;;;16.77;6.28;;;6.90;99.90;;;;;;5045033;28;20117;-76
2021/12/19 01:23:44;;;;;;;17.85;6.57;;;6.90;99.90;;;;;;5038051;28;20481;-76
2021/12/19 01:26:10;;;;;;;15.38;6.65;;;6.90;99.90;;;;;;5040077;28;20025;-76
2021/12/19 01:28:36;;;;;;;19.20;6.68;;;7.00;99.90;;;;;;5035014;28;20091;-76
2021/12/19 01:31:03;;;;;;;16.77;6.82;;;6.90;99.90;;;;;;5047222;28;20419;-76
2021/12/19 01:33:28;;;;;;;20.00;8.40;;;6.90;99.90;;;;;;5038425;28;20397;-76
2021/12/19 01:35:54;;;;;;;16.92;7.13;;;6.90;99.90;;;;;;5037058;28;20022;-76
2021/12/19 01:38:20;;;;;;;18.42;7.00;;;6.90;99.90;;;;;;5034559;28;20087;-76
2021/12/19 01:40:45;;;;;;;23.40;7.82;;;7.00;99.90;;;;;;5032426;28;20057;-76
2021/12/19 01:43:11;;;;;;;40.95;18.33;;;7.00;99.90;;;;;;5037892;28;20035;-76
2021/12/19 01:45:39;;;;;;;35.95;13.32;;;7.00;99.90;;;;;;5048668;28;20033;-76
2021/12/19 01:48:09;;;;;;;24.77;9.93;;;7.00;99.90;;;;;;5035114;28;20030;-76
2021/12/19 01:50:35;;;;;;;21.23;8.60;;;7.00;99.90;;;;;;5045798;28;20021;-77
2021/12/19 01:53:03;;;;;;;20.75;7.78;;;7.00;99.90;;;;;;5041613;28;20021;-76
2021/12/19 01:55:29;;;;;;;22.40;8.15;;;7.00;99.90;;;;;;5045080;28;20526;-76
2021/12/19 01:57:55;;;;;;;27.08;8.60;;;7.10;99.90;;;;;;5040602;28;20124;-76
2021/12/19 02:00:23;;;;;;;22.85;7.50;;;7.10;99.90;;;;;;5038146;28;20026;-76
2021/12/19 02:02:49;;;;;;;21.70;7.88;;;7.10;99.90;;;;;;5041789;28;20024;-77
2021/12/19 02:05:15;;;;;;;21.98;7.38;;;7.10;99.90;;;;;;5037320;28;20108;-76
2021/12/19 02:07:45;;;;;;;17.90;6.70;;;7.10;99.90;;;;;;5041725;28;20460;-76
2021/12/19 02:10:11;;;;;;;19.92;6.82;;;7.10;99.90;;;;;;5048920;28;20116;-77
2021/12/19 02:12:38;;;;;;;18.30;6.65;;;7.20;99.90;;;;;;5039409;28;20100;-76
2021/12/19 02:15:04;;;;;;;16.30;6.70;;;7.20;99.90;;;;;;5040742;28;20454;-76
2021/12/19 02:17:30;;;;;;;17.25;6.32;;;7.20;99.90;;;;;;5035219;28;20429;-76
2021/12/19 02:19:57;;;;;;;16.85;6.40;;;7.20;99.90;;;;;;5046063;28;20025;-76
2021/12/19 02:22:23;;;;;;;16.75;5.85;;;7.20;99.90;;;;;;5036530;28;20052;-76
2021/12/19 02:24:49;;;;;;;12.52;4.97;;;7.20;99.90;;;;;;5047394;28;20060;-75
2021/12/19 02:27:14;;;;;;;10.65;4.10;;;7.30;99.90;;;;;;5037067;28;20519;-77
2021/12/19 02:29:40;;;;;;;7.55;3.50;;;7.30;99.90;;;;;;5030388;28;20033;-76
2021/12/19 02:32:06;;;;;;;6.68;3.20;;;7.30;99.90;;;;;;5038437;28;20033;-76
2021/12/19 02:34:38;;;;;;;7.45;3.28;;;7.30;99.90;;;;;;5048005;28;20025;-77
2021/12/19 02:37:13;;;;;;;8.40;3.60;;;7.30;99.90;;;;;;5042265;28;20033;-77
2021/12/19 02:50:51;;;;;;;13.20;4.55;;;7.40;99.90;;;;;;5046345;28;20021;-76
2021/12/19 02:53:26;;;;;;;8.02;4.10;;;7.40;99.90;;;;;;5038658;28;20026;-76
2021/12/19 02:55:52;;;;;;;11.63;4.90;;;7.40;99.90;;;;;;5041987;28;20018;-76
2021/12/19 02:58:17;;;;;;;11.98;5.03;;;7.50;99.90;;;;;;5029072;28;20552;-76
2021/12/19 03:00:43;;;;;;;10.98;4.78;;;7.50;99.90;;;;;;5035867;28;20041;-77
2021/12/19 03:03:09;;;;;;;9.60;4.40;;;7.50;99.90;;;;;;5037548;28;20032;-76
2021/12/19 03:05:37;;;;;;;8.05;4.18;;;7.50;99.90;;;;;;5043143;28;20026;-77
2021/12/19 03:08:03;;;;;;;9.98;4.38;;;7.50;99.90;;;;;;5032429;28;20402;-77
2021/12/19 03:18:35;;;;;;;7.50;3.20;;;7.50;99.90;;;;;;5039582;28;20040;-76
2021/12/19 03:21:01;;;;;;;8.68;3.53;;;7.50;99.90;;;;;;5029588;28;20474;-76
2021/12/19 03:23:26;;;;;;;6.53;3.05;;;7.50;99.90;;;;;;5033762;28;20025;-76
2021/12/19 03:25:52;;;;;;;8.48;3.70;;;7.50;99.90;;;;;;5038789;28;20428;-76
2021/12/19 03:28:18;;;;;;;8.45;3.60;;;7.50;99.90;;;;;;5041394;28;20490;-76
2021/12/19 03:30:47;;;;;;;7.28;3.50;;;7.40;99.90;;;;;;5040143;28;20021;-76
2021/12/19 03:33:12;;;;;;;6.72;2.97;;;7.50;99.90;;;;;;5036896;28;20021;-76
2021/12/19 03:35:40;;;;;;;6.25;3.40;;;7.50;99.90;;;;;;5038964;28;20086;-76
2021/12/19 03:38:11;;;;;;;7.40;2.97;;;7.50;99.90;;;;;;5032428;28;20065;-75
2021/12/19 03:40:40;;;;;;;5.93;3.05;;;7.40;99.90;;;;;;5036617;28;20033;-76
2021/12/19 03:43:18;;;;;;;7.50;3.28;;;7.40;99.90;;;;;;5038596;28;20024;-76
2021/12/19 03:45:45;;;;;;;8.50;3.55;;;7.40;99.90;;;;;;5039828;28;20033;-76
2021/12/19 03:48:12;;;;;;;6.15;2.85;;;7.40;99.90;;;;;;5035145;28;20108;-76
2021/12/19 03:50:43;;;;;;;6.90;3.35;;;7.40;99.90;;;;;;5040148;28;20399;-76
2021/12/19 03:53:09;;;;;;;6.03;2.78;;;7.40;99.90;;;;;;5044374;28;20078;-76
2021/12/19 03:55:34;;;;;;;6.30;2.85;;;7.40;99.90;;;;;;5034517;28;20030;-76
2021/12/19 03:58:02;;;;;;;5.85;2.53;;;7.40;99.90;;;;;;5039729;28;20392;-76
2021/12/19 04:00:28;;;;;;;5.68;2.92;;;7.50;99.90;;;;;;5037123;28;20453;-75
2021/12/19 04:02:58;;;;;;;5.97;2.63;;;7.50;99.90;;;;;;5042003;28;20050;-75
2021/12/19 04:05:24;;;;;;;4.65;2.65;;;7.50;99.90;;;;;;5037598;28;20033;-76
2021/12/19 04:07:50;;;;;;;5.53;2.80;;;7.50;99.90;;;;;;5042693;28;20132;-76
2021/12/19 04:10:16;;;;;;;6.70;2.75;;;7.50;99.90;;;;;;5039755;28;20090;-75
2021/12/19 04:12:43;;;;;;;8.10;3.42;;;7.50;99.90;;;;;;5038416;28;20108;-76
2021/12/19 04:15:10;;;;;;;9.27;3.33;;;7.50;99.90;;;;;;5043190;28;20485;-77
2021/12/19 04:17:37;;;;;;;7.57;3.08;;;7.60;99.90;;;;;;5042029;28;20018;-77
2021/12/19 04:20:04;;;;;;;8.52;3.72;;;7.60;99.90;;;;;;5037341;28;20382;-76
2021/12/19 04:22:29;;;;;;;8.48;3.80;;;7.60;99.90;;;;;;5033404;28;20101;-76
2021/12/19 04:24:55;;;;;;;9.55;3.60;;;7.60;99.90;;;;;;5039204;28;20503;-76
2021/12/19 04:27:21;;;;;;;8.48;3.05;;;7.60;99.90;;;;;;5042631;28;20053;-76
2021/12/19 04:29:47;;;;;;;8.30;3.00;;;7.60;99.90;;;;;;5035537;28;20062;-77
2021/12/19 04:32:12;;;;;;;10.07;3.42;;;7.60;99.90;;;;;;5036782;28;20070;-77
2021/12/19 04:34:38;;;;;;;9.35;3.88;;;7.60;99.90;;;;;;5036110;28;20063;-76
2021/12/19 04:37:22;;;;;;;9.35;3.95;;;7.60;99.90;;;;;;5038210;28;20017;-77
2021/12/19 04:39:56;;;;;;;8.18;3.10;;;7.60;99.90;;;;;;5038973;28;20025;-76
2021/12/19 04:53:30;;;;;;;6.47;2.40;;;7.60;99.90;;;;;;4973635;28;20038;-76
2021/12/19 04:56:19;;;;;;;6.03;2.72;;;7.60;99.90;;;;;;4974186;28;20035;-76
2021/12/19 04:58:55;;;;;;;6.70;2.75;;;7.60;99.90;;;;;;4976283;28;20181;-77
2021/12/19 05:01:51;;;;;;;5.20;2.40;;;7.60;99.90;;;;;;4978725;28;20485;-76
2021/12/19 05:15:07;;;;;;;8.48;3.50;;;7.70;99.90;;;;;;4977780;28;20580;-75
2021/12/19 05:17:34;;;;;;;10.45;3.35;;;7.70;99.90;;;;;;4972628;28;20039;-76
2021/12/19 05:20:19;;;;;;;6.57;3.42;;;7.70;99.90;;;;;;4977329;28;20503;-75
2021/12/19 05:22:51;;;;;;;7.20;3.42;;;7.70;99.90;;;;;;4970892;28;20023;-76
2021/12/19 05:25:18;;;;;;;7.78;3.20;;;7.80;99.90;;;;;;5030372;28;20048;-76
2021/12/19 05:27:53;;;;;;;5.40;2.63;;;7.80;99.90;;;;;;5040336;28;20045;-76
2021/12/19 05:30:20;;;;;;;4.88;2.60;;;7.80;99.90;;;;;;5042677;28;20021;-76
2021/12/19 05:32:47;;;;;;;5.68;2.30;;;7.70;99.90;;;;;;5036721;28;20437;-77
2021/12/19 05:35:17;;;;;;;6.88;2.92;;;7.70;99.90;;;;;;5035684;28;20706;-76
2021/12/19 05:45:57;;;;;;;6.85;3.13;;;7.80;99.90;;;;;;5045454;28;20035;-76
2021/12/19 05:48:23;;;;;;;7.80;3.05;;;7.80;99.90;;;;;;5046000;27;20037;-77
2021/12/19 05:50:48;;;;;;;4.28;2.33;;;7.80;99.90;;;;;;5033929;27;20370;-76
2021/12/19 05:53:15;;;;;;;5.80;2.22;;;7.70;99.90;;;;;;5040697;28;20196;-75
2021/12/19 05:55:41;;;;;;;5.95;2.03;;;7.70;99.90;;;;;;5044410;28;20025;-77
2021/12/19 05:58:07;;;;;;;3.00;1.98;;;7.70;99.90;;;;;;5031663;28;20029;-76
2021/12/19 06:00:34;;;;;;;3.72;2.00;;;7.70;99.90;;;;;;5036990;28;20028;-76
2021/12/19 06:03:01;;;;;;;3.15;1.67;;;7.80;99.90;;;;;;5043058;28;20081;-75
2021/12/19 06:05:27;;;;;;;2.95;1.92;;;7.70;99.90;;;;;;5046690;28;20497;-76
2021/12/19 06:07:52;;;;;;;4.88;2.30;;;7.70;99.90;;;;;;5043298;28;20028;-75
2021/12/19 06:10:20;;;;;;;5.35;2.30;;;7.70;99.90;;;;;;5045886;28;20021;-76
2021/12/19 06:12:45;;;;;;;5.15;2.17;;;7.70;99.90;;;;;;5040514;28;20085;-76
2021/12/19 06:15:11;;;;;;;2.80;1.50;;;7.70;99.90;;;;;;5030815;28;20026;-76
2021/12/19 06:17:44;;;;;;;4.50;1.88;;;7.80;99.90;;;;;;5036837;28;20365;-76
2021/12/19 06:20:11;;;;;;;4.13;2.13;;;7.80;99.90;;;;;;5039018;28;20021;-76
2021/12/19 06:22:37;;;;;;;3.97;1.90;;;7.80;99.90;;;;;;5037616;28;20032;-76
2021/12/19 06:25:04;;;;;;;3.10;1.70;;;7.80;99.90;;;;;;5041585;28;20417;-76
2021/12/19 06:27:29;;;;;;;2.60;1.63;;;7.80;99.90;;;;;;5038379;28;20033;-76
2021/12/19 06:29:55;;;;;;;3.72;1.55;;;7.80;99.90;;;;;;5038479;28;20036;-76
2021/12/19 06:32:22;;;;;;;2.83;1.60;;;7.80;99.90;;;;;;5041471;28;20457;-76
2021/12/19 06:34:47;;;;;;;4.30;1.80;;;7.80;99.90;;;;;;5041472;28;20051;-76
2021/12/19 06:37:13;;;;;;;4.40;1.55;;;7.80;99.90;;;;;;5045458;28;20018;-76
2021/12/19 06:39:39;;;;;;;4.15;1.58;;;7.80;99.90;;;;;;5048753;28;20032;-77
2021/12/19 06:42:07;;;;;;;2.22;1.52;;;7.80;99.90;;;;;;5033062;28;20022;-76
2021/12/19 06:44:34;;;;;;;3.13;1.50;;;7.80;99.90;;;;;;5037908;28;20021;-76
2021/12/19 06:47:00;;;;;;;4.47;1.70;;;7.80;99.90;;;;;;5045115;28;20033;-76
2021/12/19 06:49:27;;;;;;;3.78;1.80;;;7.80;99.90;;;;;;5042303;28;20025;-76
2021/12/19 06:51:53;;;;;;;3.45;1.63;;;7.80;99.90;;;;;;5036414;28;20018;-75
2021/12/19 06:54:19;;;;;;;2.85;1.60;;;7.80;99.90;;;;;;5042906;28;20362;-75
2021/12/19 06:56:44;;;;;;;3.78;1.77;;;7.80;99.90;;;;;;5033114;28;20089;-75
2021/12/19 06:59:10;;;;;;;3.95;2.38;;;7.80;99.90;;;;;;5041034;28;20062;-76
2021/12/19 07:01:39;;;;;;;4.65;2.40;;;7.80;99.90;;;;;;5039208;28;20033;-76
2021/12/19 07:04:08;;;;;;;2.78;1.80;;;7.80;99.90;;;;;;5037460;28;20030;-75
2021/12/19 07:06:34;;;;;;;4.03;1.45;;;7.80;99.90;;;;;;5042107;28;20017;-76
2021/12/19 07:09:00;;;;;;;2.28;1.58;;;7.80;99.90;;;;;;5036802;28;20548;-76
2021/12/19 07:11:25;;;;;;;2.42;1.20;;;7.80;99.90;;;;;;5034884;28;20105;-76
2021/12/19 07:13:53;;;;;;;1.55;1.10;;;7.70;99.90;;;;;;5037158;28;20152;-76
2021/12/19 07:16:18;;;;;;;2.83;0.90;;;7.70;99.90;;;;;;5041857;28;20017;-75
2021/12/19 07:18:44;;;;;;;1.70;0.80;;;7.70;99.90;;;;;;5029829;28;20025;-75
2021/12/19 07:21:10;;;;;;;2.65;0.80;;;7.60;99.90;;;;;;5038764;28;20022;-75
2021/12/19 07:23:36;;;;;;;2.08;1.08;;;7.60;99.90;;;;;;5038290;28;20100;-75
2021/12/19 07:26:02;;;;;;;4.75;1.10;;;7.60;99.90;;;;;;5041945;28;20021;-75
2021/12/19 07:28:27;;;;;;;1.80;0.80;;;7.60;99.90;;;;;;5042632;28;20493;-75
2021/12/19 07:30:53;;;;;;;2.42;0.80;;;7.60;99.90;;;;;;5043381;28;20171;-75
2021/12/19 07:33:19;;;;;;;1.92;0.85;;;7.60;99.90;;;;;;5037316;28;20488;-75
2021/12/19 07:35:47;;;;;;;2.65;1.10;;;7.60;99.90;;;;;;5033311;28;20029;-75
2021/12/19 07:38:22;;;;;;;2.25;0.70;;;7.60;99.90;;;;;;5038970;28;20022;-75
2021/12/19 07:40:50;;;;;;;1.73;0.68;;;7.60;99.90;;;;;;5034950;28;20474;-75
2021/12/19 07:43:16;;;;;;;1.58;0.90;;;7.60;99.90;;;;;;5029830;28;20064;-76
2021/12/19 07:45:42;;;;;;;3.40;1.00;;;7.60;99.90;;;;;;5032314;28;20033;-75
2021/12/19 07:48:08;;;;;;;3.35;1.17;;;7.60;99.90;;;;;;5032950;28;20029;-75
2021/12/19 07:50:34;;;;;;;2.15;1.15;;;7.60;99.90;;;;;;5031237;28;20382;-75
2021/12/19 07:53:01;;;;;;;3.95;1.30;;;7.60;99.90;;;;;;5033681;28;20496;-76
2021/12/19 07:55:27;;;;;;;4.13;1.20;;;7.60;99.90;;;;;;5033355;28;20157;-75
2021/12/19 07:57:53;;;;;;;3.63;1.60;;;7.60;99.90;;;;;;5030861;28;20109;-75
2021/12/19 08:00:20;;;;;;;2.42;1.15;;;7.60;99.90;;;;;;5035238;28;20036;-75
2021/12/19 08:02:46;;;;;;;3.55;1.33;;;7.60;99.90;;;;;;5033937;28;20049;-75
2021/12/19 08:05:13;;;;;;;3.08;1.50;;;7.60;99.90;;;;;;5033930;28;20017;-76
2021/12/19 08:07:40;;;;;;;2.28;1.30;;;7.60;99.90;;;;;;5037516;28;20032;-75
2021/12/19 08:13:04;;;;;;;2.70;1.60;;;7.60;99.90;;;;;;5056462;27;20048;-75
2021/12/19 08:15:30;;;;;;;3.03;1.50;;;7.70;99.90;;;;;;5035163;28;20478;-75
2021/12/19 08:17:56;;;;;;;3.05;1.38;;;7.70;99.90;;;;;;5032755;28;20052;-75
2021/12/19 08:20:21;;;;;;;4.50;1.73;;;7.70;99.90;;;;;;5039117;28;20034;-76
2021/12/19 08:22:49;;;;;;;3.67;1.70;;;7.70;99.90;;;;;;5034279;28;20017;-76
2021/12/19 08:25:15;;;;;;;3.42;2.00;;;7.70;99.90;;;;;;5034753;28;20545;-76
2021/12/19 08:27:41;;;;;;;3.65;2.00;;;7.70;99.90;;;;;;5037094;28;20093;-76
2021/12/19 08:30:09;;;;;;;4.95;1.90;;;7.70;99.90;;;;;;5034383;28;20032;-75
2021/12/19 08:32:36;;;;;;;3.97;1.40;;;7.70;99.90;;;;;;5033576;28;20017;-76
2021/12/19 08:35:04;;;;;;;5.88;1.95;;;7.70;99.90;;;;;;5119650;27;20029;-76
2021/12/19 08:37:29;;;;;;;2.42;1.65;;;7.70;99.90;;;;;;5036982;28;20029;-77
2021/12/19 08:39:56;;;;;;;3.80;1.50;;;7.70;99.90;;;;;;5038365;28;20017;-76
2021/12/19 08:42:21;;;;;;;1.80;1.30;;;7.70;99.90;;;;;;5039014;28;20083;-75
2021/12/19 08:44:47;;;;;;;2.78;1.40;;;7.70;99.90;;;;;;5038768;28;20025;-76
2021/12/19 08:47:15;;;;;;;2.35;1.17;;;7.70;99.90;;;;;;5033625;28;20093;-79
2021/12/19 08:49:41;;;;;;;3.67;1.33;;;7.70;99.90;;;;;;5039171;28;20037;-76
2021/12/19 08:52:08;;;;;;;1.85;1.42;;;7.70;99.90;;;;;;5035011;28;20044;-76
2021/12/19 08:54:34;;;;;;;3.70;1.45;;;7.80;99.90;;;;;;5032543;28;20086;-74
2021/12/19 08:57:00;;;;;;;2.58;1.45;;;7.80;99.90;;;;;;5032251;28;20104;-76
2021/12/19 08:59:28;;;;;;;2.67;1.40;;;7.80;99.90;;;;;;5030018;28;20124;-76
2021/12/19 09:01:54;;;;;;;2.35;1.52;;;7.80;99.90;;;;;;5034819;28;20453;-76
2021/12/19 09:04:20;;;;;;;2.42;1.50;;;7.80;99.90;;;;;;5035573;28;20027;-76
2021/12/19 09:06:46;;;;;;;3.65;1.60;;;7.80;99.90;;;;;;5037567;28;20029;-76
2021/12/19 09:09:12;;;;;;;2.17;1.50;;;7.80;99.90;;;;;;5036902;28;20078;-77
2021/12/19 09:11:37;;;;;;;2.97;1.58;;;7.90;99.90;;;;;;5039601;28;20033;-75
2021/12/19 09:14:03;;;;;;;7.55;1.67;;;7.90;99.90;;;;;;5042123;28;20025;-76
2021/12/19 09:16:29;;;;;;;5.03;1.63;;;7.90;99.90;;;;;;5046016;28;20033;-75
2021/12/19 09:18:55;;;;;;;1.75;1.30;;;7.90;99.90;;;;;;5035338;27;20033;-75
2021/12/19 09:21:20;;;;;;;2.80;1.50;;;7.90;99.90;;;;;;5026914;28;20087;-75
2021/12/19 09:23:46;;;;;;;6.18;1.70;;;7.90;99.90;;;;;;5037236;28;20021;-74
2021/12/19 09:26:13;;;;;;;5.15;1.70;;;7.90;99.90;;;;;;5036821;28;20037;-74
2021/12/19 09:28:39;;;;;;;3.55;1.38;;;7.90;99.90;;;;;;5038332;28;20054;-75
2021/12/19 09:31:04;;;;;;;2.78;1.10;;;7.90;99.90;;;;;;5031151;28;20155;-75
2021/12/19 09:33:30;;;;;;;5.45;1.33;;;7.90;99.90;;;;;;5041145;28;20036;-75
2021/12/19 09:35:57;;;;;;;4.20;1.33;;;7.90;99.90;;;;;;5031445;28;20037;-75
2021/12/19 09:38:23;;;;;;;3.30;1.02;;;7.90;99.90;;;;;;5042780;28;20040;-74
2021/12/19 09:40:49;;;;;;;2.17;0.90;;;7.90;99.90;;;;;;5037798;28;20041;-75
2021/12/19 09:45:59;;;;;;;3.75;1.17;;;8.00;99.90;;;;;;5034910;28;20032;-74
2021/12/19 09:48:27;;;;;;;6.63;1.35;;;8.00;99.90;;;;;;5037366;28;20029;-76
2021/12/19 09:50:53;;;;;;;3.15;1.17;;;8.00;99.90;;;;;;5031067;28;20051;-75
2021/12/19 09:53:21;;;;;;;3.28;1.30;;;8.10;99.90;;;;;;5031548;28;20393;-76
2021/12/19 09:55:46;;;;;;;1.45;1.35;;;8.10;99.90;;;;;;5041810;28;20389;-76
2021/12/19 09:58:15;;;;;;;3.20;1.38;;;8.20;99.90;;;;;;5031043;28;20033;-75
2021/12/19 10:00:41;;;;;;;3.00;1.70;;;8.20;99.90;;;;;;5038397;28;20025;-74
2021/12/19 10:03:11;;;;;;;6.13;1.60;;;8.20;99.90;;;;;;5036445;28;20029;-74
2021/12/19 10:05:37;;;;;;;6.55;2.03;;;8.10;99.90;;;;;;5035709;28;20024;-77
2021/12/19 10:08:03;;;;;;;3.95;1.70;;;8.10;99.90;;;;;;5034825;28;20037;-75
2021/12/19 10:10:47;;;;;;;3.67;1.45;;;8.10;99.90;;;;;;5032667;28;20090;-75
2021/12/19 10:13:14;;;;;;;2.42;1.58;;;8.10;99.90;;;;;;5035409;28;20036;-75
2021/12/19 10:15:43;;;;;;;3.53;1.15;;;8.10;99.90;;;;;;5050562;28;20100;-76
2021/12/19 10:18:11;;;;;;;1.08;1.00;;;8.20;99.90;;;;;;5041031;28;20021;-76
2021/12/19 10:20:41;;;;;;;2.55;1.08;;;8.10;99.90;;;;;;5034300;28;20123;-77
2021/12/19 10:23:12;;;;;;;4.05;1.58;;;8.20;99.90;;;;;;5031853;28;20030;-76
2021/12/19 10:25:42;;;;;;;3.95;0.90;;;8.20;99.90;;;;;;5034347;28;20021;-76
2021/12/19 10:28:09;;;;;;;2.03;0.98;;;8.20;99.90;;;;;;5039507;28;20049;-76
2021/12/19 10:30:39;;;;;;;5.60;0.80;;;8.20;99.90;;;;;;5039979;28;20041;-76
2021/12/19 10:33:10;;;;;;;1.80;0.60;;;8.20;99.90;;;;;;5041395;28;20021;-75
2021/12/19 10:35:47;;;;;;;2.65;0.70;;;8.20;99.90;;;;;;5038918;28;20026;-74
2021/12/19 10:38:22;;;;;;;1.95;0.80;;;8.20;99.90;;;;;;5043361;28;20033;-75
2021/12/19 10:40:49;;;;;;;2.92;0.80;;;8.20;99.90;;;;;;5045775;28;20029;-76
2021/12/19 10:43:17;;;;;;;4.97;1.50;;;8.30;99.90;;;;;;5030752;28;20025;-74
2021/12/19 10:45:44;;;;;;;2.88;1.10;;;8.30;99.90;;;;;;5029373;28;20022;-75
2021/12/19 10:48:10;;;;;;;2.63;0.98;;;8.30;99.90;;;;;;5030667;28;20425;-75
2021/12/19 10:51:03;;;;;;;9.60;3.80;;;8.30;99.90;;;;;;5034106;27;20083;-77
2021/12/19 10:53:37;;;;;;;2.33;1.13;;;8.30;99.90;;;;;;5037592;28;20033;-77
2021/12/19 10:56:18;;;;;;;4.72;2.90;;;8.30;99.90;;;;;;5033008;28;20021;-76
2021/12/19 10:58:57;;;;;;;5.90;3.10;;;8.30;99.90;;;;;;5048384;28;20086;-76
2021/12/19 11:01:25;;;;;;;6.65;3.40;;;8.30;99.90;;;;;;5045281;28;20065;-77
2021/12/19 11:04:10;;;;;;;9.38;2.60;;;8.40;99.90;;;;;;5054891;27;20017;-75
2021/12/19 11:06:58;;;;;;;5.03;2.20;;;8.40;99.90;;;;;;5035280;28;20039;-76
2021/12/19 11:09:27;;;;;;;5.20;2.50;;;8.40;99.90;;;;;;5028520;28;20104;-77
2021/12/19 11:11:56;;;;;;;11.02;3.33;;;8.40;99.90;;;;;;5037371;28;20022;-76
2021/12/19 11:14:25;;;;;;;10.63;3.40;;;8.40;99.90;;;;;;5033908;28;20795;-78
2021/12/19 11:17:00;;;;;;;11.73;3.80;;;8.40;99.90;;;;;;5044963;28;20021;-77
2021/12/19 11:19:31;;;;;;;13.85;3.92;;;8.40;99.90;;;;;;5034350;28;20505;-77
2021/12/19 11:21:57;;;;;;;9.25;3.80;;;8.40;99.90;;;;;;5036694;27;20044;-77
2021/12/19 11:24:25;;;;;;;12.30;3.85;;;8.40;99.90;;;;;;5037563;27;20055;-77
2021/12/19 11:26:54;;;;;;;13.85;4.30;;;8.40;99.90;;;;;;5040336;28;20533;-76
2021/12/19 11:29:21;;;;;;;9.00;4.10;;;8.40;99.90;;;;;;5030634;28;20046;-76
2021/12/19 11:31:52;;;;;;;14.70;4.75;;;8.40;99.90;;;;;;5029355;28;20045;-76
2021/12/19 11:34:41;;;;;;;14.93;4.80;;;8.50;99.90;;;;;;5029198;28;20029;-77
2021/12/19 11:37:06;;;;;;;16.30;4.80;;;8.50;99.90;;;;;;5029574;28;20379;-77
2021/12/19 11:39:36;;;;;;;11.18;4.03;;;8.40;99.90;;;;;;5029245;28;20037;-78
2021/12/19 11:42:06;;;;;;;12.45;4.20;;;8.40;99.90;;;;;;5029103;28;20017;-76
2021/12/19 11:44:41;;;;;;;14.82;4.60;;;8.50;99.90;;;;;;5044419;28;20036;-77
2021/12/19 11:47:11;;;;;;;14.43;3.67;;;8.40;99.90;;;;;;5029038;28;20109;-76
2021/12/19 11:49:37;;;;;;;13.38;3.72;;;8.40;99.90;;;;;;5029568;28;20026;-76
2021/12/19 11:52:30;;;;;;;15.70;3.88;;;8.40;99.90;;;;;;5029053;28;20026;-80
2021/12/19 11:55:19;;;;;;;16.13;3.22;;;8.40;99.90;;;;;;5029199;28;20018;-78
2021/12/19 11:58:07;;;;;;;10.32;3.13;;;8.40;99.90;;;;;;5029113;28;20370;-77
2021/12/19 12:01:19;;;;;;;11.05;3.50;;;8.30;99.90;;;;;;5028110;28;20109;-75
2021/12/19 12:03:59;;;;;;;9.70;3.47;;;8.40;99.90;;;;;;5030511;28;20533;-78
2021/12/19 12:06:29;;;;;;;14.02;3.70;;;8.40;99.90;;;;;;5031566;28;20772;-78
2021/12/19 12:09:06;;;;;;;12.73;3.10;;;8.40;99.90;;;;;;5038944;28;20014;-76
2021/12/19 12:11:36;;;;;;;14.15;3.38;;;8.40;99.90;;;;;;5048586;27;20119;-76
2021/12/19 12:14:21;;;;;;;8.40;3.25;;;8.40;99.90;;;;;;5038969;28;20021;-77
2021/12/19 12:16:57;;;;;;;19.02;3.85;;;8.40;99.90;;;;;;5038011;28;20013;-77
2021/12/19 12:19:52;;;;;;;14.82;3.72;;;8.40;99.90;;;;;;5036115;28;20493;-77
2021/12/19 12:22:45;;;;;;;15.57;3.38;;;8.40;99.90;;;;;;5039986;28;20029;-77
2021/12/19 12:25:17;;;;;;;17.65;4.30;;;8.40;99.90;;;;;;5035904;28;20033;-77
2021/12/19 12:27:56;;;;;;;10.30;2.92;;;8.40;99.90;;;;;;5031212;28;20101;-77
2021/12/19 12:30:28;;;;;;;13.63;3.78;;;8.30;99.90;;;;;;5029366;28;20029;-77
2021/12/19 12:32:56;;;;;;;12.57;3.50;;;8.30;99.90;;;;;;5033463;28;20028;-75
2021/12/19 12:35:25;;;;;;;14.82;3.03;;;8.30;99.90;;;;;;5034704;28;20025;-77
2021/12/19 12:37:51;;;;;;;11.55;2.58;;;8.30;99.90;;;;;;5037329;28;20018;-77
2021/12/19 12:40:53;;;;;;;11.80;2.42;;;8.20;99.90;;;;;;5123231;27;20120;-77
2021/12/19 12:43:20;;;;;;;9.25;2.15;;;8.20;99.90;;;;;;5030015;28;20030;-76
2021/12/19 12:46:13;;;;;;;7.32;1.95;;;8.10;99.90;;;;;;5029035;28;20051;-75
2021/12/19 12:49:00;;;;;;;4.75;1.73;;;8.10;99.90;;;;;;5028995;28;20021;-75
2021/12/19 12:51:36;;;;;;;6.40;1.42;;;8.10;99.90;;;;;;5030502;28;20474;-75
2021/12/19 12:54:09;;;;;;;9.07;1.40;;;8.10;99.90;;;;;;5030923;28;20734;-76
2021/12/19 12:56:45;;;;;;;6.50;1.45;;;8.00;99.90;;;;;;5037053;28;20021;-75
2021/12/19 12:59:14;;;;;;;7.32;1.50;;;8.00;99.90;;;;;;5045880;28;20412;-76
2021/12/19 13:01:52;;;;;;;8.95;1.42;;;7.90;99.90;;;;;;5039896;28;20045;-76
2021/12/19 13:04:25;;;;;;;10.10;1.85;;;7.90;99.90;;;;;;5029434;28;20101;-76
2021/12/19 13:07:02;;;;;;;7.55;1.73;;;7.80;99.90;;;;;;5029721;28;20025;-76
2021/12/19 13:09:28;;;;;;;9.25;1.88;;;7.90;99.90;;;;;;5029609;28;20498;-76
2021/12/19 13:12:03;;;;;;;13.10;2.30;;;7.80;99.90;;;;;;5038835;28;20474;-76
2021/12/19 13:14:32;;;;;;;8.82;1.77;;;7.80;99.90;;;;;;5048092;28;20089;-75
2021/12/19 13:17:04;;;;;;;6.53;2.15;;;7.90;99.90;;;;;;5049179;28;20735;-76
2021/12/19 13:19:52;;;;;;;5.15;2.30;;;7.90;99.90;;;;;;5064573;28;20044;-75
2021/12/19 13:22:39;;;;;;;4.50;1.67;;;7.90;99.90;;;;;;5038538;28;20114;-77
2021/12/19 13:25:17;;;;;;;9.55;2.13;;;7.90;99.90;;;;;;5036181;28;20023;-76
2021/12/19 13:27:46;;;;;;;8.02;2.03;;;7.90;99.90;;;;;;5037554;28;20145;-74
2021/12/19 13:30:24;;;;;;;8.75;2.30;;;8.00;99.90;;;;;;5036461;28;20029;-74
2021/12/19 13:33:05;;;;;;;10.10;2.40;;;8.00;99.90;;;;;;5037925;27;20033;-75
2021/12/19 13:35:38;;;;;;;9.32;2.40;;;8.00;99.90;;;;;;5039362;28;20089;-75
2021/12/19 13:38:09;;;;;;;12.05;2.55;;;8.00;99.90;;;;;;5049389;27;20060;-76
2021/12/19 13:40:41;;;;;;;9.43;2.33;;;8.00;99.90;;;;;;5038632;28;20029;-76
2021/12/19 13:43:12;;;;;;;15.65;2.58;;;8.00;99.90;;;;;;5035207;28;20021;-76
2021/12/19 13:45:43;;;;;;;11.20;2.72;;;8.00;99.90;;;;;;5037678;28;20021;-76
2021/12/19 13:48:39;;;;;;;13.98;3.13;;;8.00;99.90;;;;;;5043668;28;20029;-75
2021/12/19 13:51:14;;;;;;;13.60;3.08;;;8.00;99.90;;;;;;5053059;28;20105;-75
2021/12/19 13:53:52;;;;;;;14.95;3.33;;;8.10;99.90;;;;;;5038693;28;20103;-75
2021/12/19 13:56:23;;;;;;;15.35;3.47;;;8.10;99.90;;;;;;5034142;28;20033;-75
2021/12/19 13:58:53;;;;;;;19.02;4.47;;;8.10;99.90;;;;;;5042420;28;20057;-75
2021/12/19 14:01:30;;;;;;;15.63;5.30;;;8.10;99.90;;;;;;5063519;27;20043;-76
2021/12/19 14:03:59;;;;;;;13.20;3.35;;;8.10;99.90;;;;;;5041740;28;20036;-76
2021/12/19 14:06:36;;;;;;;13.13;2.70;;;8.10;99.90;;;;;;5045126;28;20024;-76